Time;durP1;ratioP1;P1;durP2;ratioP2;P2;SDS_P1;SDS_P2;PMS_P1;PMS_P2;Temp;Humidity;BMP_temperature;BMP_pressure;BME280_temperature;BME280_humidity;BME280_pressure;Samples;Min_cycle;Max_cycle;Signal;HPM_P1;HPM_P2
2023/06/18 00:02:15;;;;;;;12.73;10.40;;;;;;;16.73;100.00;100445.88;6255140;28;20045;-92
2023/06/18 00:05:17;;;;;;;12.40;9.20;;;;;;;16.72;100.00;100443.41;6260085;28;20190;-92
2023/06/18 00:08:19;;;;;;;13.13;8.63;;;;;;;16.72;100.00;100446.00;6251414;28;20492;-92
2023/06/18 00:11:21;;;;;;;13.10;9.95;;;;;;;16.74;100.00;100451.91;6238912;28;20048;-92
2023/06/18 00:14:23;;;;;;;12.15;9.05;;;;;;;16.75;100.00;100450.94;6250134;28;20045;-92
2023/06/18 00:17:25;;;;;;;13.50;9.18;;;;;;;16.73;100.00;100438.03;6249815;28;20319;-91
2023/06/18 00:20:27;;;;;;;11.25;9.32;;;;;;;16.78;100.00;100448.03;6243801;28;20040;-92
2023/06/18 00:23:28;;;;;;;13.18;9.48;;;;;;;16.78;100.00;100446.22;6238925;28;20046;-91
2023/06/18 00:26:30;;;;;;;10.80;8.80;;;;;;;16.81;100.00;100439.84;6236390;28;20044;-92
2023/06/18 00:29:32;;;;;;;14.57;9.57;;;;;;;16.80;100.00;100448.69;6246928;28;20052;-91
2023/06/18 00:32:34;;;;;;;12.48;8.60;;;;;;;16.78;100.00;100454.06;6246999;28;20491;-92
2023/06/18 00:35:36;;;;;;;11.30;8.70;;;;;;;16.73;100.00;100451.09;6243711;28;20490;-92
2023/06/18 00:38:43;;;;;;;13.20;9.00;;;;;;;16.70;100.00;100448.00;6237359;28;20054;-92
2023/06/18 00:41:46;;;;;;;10.70;8.57;;;;;;;16.65;100.00;100445.06;6233083;28;20062;-91
2023/06/18 00:44:48;;;;;;;12.68;9.50;;;;;;;16.58;100.00;100447.50;6225016;28;20044;-91
2023/06/18 00:47:50;;;;;;;11.50;9.07;;;;;;;16.51;100.00;100452.53;6248394;28;20145;-91
2023/06/18 00:51:04;;;;;;;10.85;8.75;;;;;;;16.44;100.00;100446.31;6232736;28;20037;-91
2023/06/18 00:54:06;;;;;;;14.85;9.68;;;;;;;16.33;100.00;100449.25;6251347;28;20652;-91
2023/06/18 00:57:08;;;;;;;15.63;9.93;;;;;;;16.31;100.00;100453.81;6246937;28;20049;-91
2023/06/18 01:00:12;;;;;;;16.05;9.60;;;;;;;16.26;100.00;100451.69;6229025;28;20053;-91
2023/06/18 01:03:21;;;;;;;11.85;9.48;;;;;;;16.22;100.00;100450.34;6232775;28;20053;-91
2023/06/18 01:06:24;;;;;;;13.55;9.10;;;;;;;16.17;100.00;100449.22;6242864;28;20048;-91
2023/06/18 01:09:26;;;;;;;13.90;9.50;;;;;;;16.09;100.00;100450.81;6240565;28;20510;-91
2023/06/18 01:12:29;;;;;;;13.63;9.40;;;;;;;16.06;100.00;100455.56;6243634;28;20566;-91
2023/06/18 01:15:31;;;;;;;11.77;9.75;;;;;;;16.02;100.00;100454.22;6230752;28;20060;-91
2023/06/18 01:18:36;;;;;;;13.68;9.57;;;;;;;15.94;100.00;100455.03;6243722;28;20038;-91
2023/06/18 01:21:40;;;;;;;12.40;9.73;;;;;;;15.83;100.00;100450.09;6254544;28;20588;-91
2023/06/18 01:24:49;;;;;;;11.85;8.98;;;;;;;15.75;100.00;100450.88;6219952;28;20192;-91
2023/06/18 01:27:53;;;;;;;11.65;9.15;;;;;;;15.71;100.00;100455.59;6246495;28;20462;-91
2023/06/18 01:30:56;;;;;;;11.10;9.27;;;;;;;15.75;100.00;100453.50;6236779;28;20046;-91
2023/06/18 01:33:58;;;;;;;11.90;9.00;;;;;;;15.83;100.00;100455.31;6225341;28;20041;-91
2023/06/18 01:37:10;;;;;;;12.55;8.50;;;;;;;15.89;100.00;100459.91;6235440;28;20171;-91
2023/06/18 01:40:22;;;;;;;10.68;8.77;;;;;;;15.85;100.00;100463.78;6236156;28;20042;-91
2023/06/18 01:43:30;;;;;;;;;;;;;;;15.83;100.00;100460.53;6228745;28;20038;-91
2023/06/18 01:46:33;;;;;;;10.13;8.05;;;;;;;15.89;100.00;100457.28;6231682;28;20394;-91
2023/06/18 01:49:40;;;;;;;11.93;9.18;;;;;;;15.98;100.00;100455.53;6245260;28;20368;-91
2023/06/18 01:52:44;;;;;;;11.55;9.43;;;;;;;16.08;100.00;100464.06;6254387;28;20044;-91
2023/06/18 01:55:50;;;;;;;12.00;9.75;;;;;;;16.18;100.00;100461.31;6246676;28;20410;-91
2023/06/18 01:58:51;;;;;;;11.85;9.20;;;;;;;16.25;100.00;100470.16;6257060;28;20478;-91
2023/06/18 02:01:53;;;;;;;12.93;9.48;;;;;;;16.29;100.00;100466.22;6243900;28;20037;-92
2023/06/18 02:04:55;;;;;;;11.45;9.70;;;;;;;16.28;100.00;100467.22;6236511;28;20403;-92
2023/06/18 02:07:57;;;;;;;14.25;9.73;;;;;;;16.25;100.00;100467.53;6240789;28;20050;-91
2023/06/18 02:11:00;;;;;;;12.15;9.35;;;;;;;16.29;100.00;100474.06;6231274;28;20057;-91
2023/06/18 02:14:02;;;;;;;11.10;8.82;;;;;;;16.23;100.00;100467.69;6230557;28;20068;-91
2023/06/18 02:17:04;;;;;;;11.55;8.40;;;;;;;16.21;100.00;100471.44;6255136;28;20043;-92
2023/06/18 02:20:08;;;;;;;11.68;8.70;;;;;;;16.20;100.00;100468.00;6246175;28;20423;-91
2023/06/18 02:23:10;;;;;;;13.05;9.07;;;;;;;16.20;100.00;100469.78;6233484;28;20049;-91
2023/06/18 02:26:13;;;;;;;11.25;8.82;;;;;;;16.22;100.00;100479.09;6238421;28;20418;-91
2023/06/18 02:29:15;;;;;;;11.13;8.43;;;;;;;16.22;100.00;100483.50;6247522;28;20049;-91
2023/06/18 02:32:17;;;;;;;12.63;8.90;;;;;;;16.20;100.00;100475.84;6237258;28;20121;-91
2023/06/18 02:35:19;;;;;;;10.85;8.90;;;;;;;16.20;100.00;100472.38;6234037;28;20107;-91
2023/06/18 02:38:21;;;;;;;11.13;8.60;;;;;;;16.15;100.00;100470.28;6241355;28;20128;-91
2023/06/18 02:41:22;;;;;;;11.73;8.82;;;;;;;16.08;100.00;100472.69;6244009;28;20053;-91
2023/06/18 02:44:24;;;;;;;11.07;9.45;;;;;;;16.03;100.00;100474.97;6253767;28;20517;-91
2023/06/18 02:47:26;;;;;;;14.82;9.57;;;;;;;15.93;100.00;100469.88;6245108;28;20076;-91
2023/06/18 02:50:28;;;;;;;11.52;9.13;;;;;;;15.84;100.00;100462.16;6230343;28;20475;-91
2023/06/18 02:53:30;;;;;;;12.38;9.32;;;;;;;15.76;100.00;100464.75;6234026;28;20045;-91
2023/06/18 02:56:31;;;;;;;11.95;9.13;;;;;;;15.68;100.00;100466.31;6236316;28;20049;-91
2023/06/18 02:59:33;;;;;;;19.98;10.43;;;;;;;15.61;100.00;100462.69;6252189;28;20064;-91
2023/06/18 03:02:35;;;;;;;11.45;9.63;;;;;;;15.57;100.00;100469.19;6256427;28;20043;-91
2023/06/18 03:05:40;;;;;;;12.35;8.95;;;;;;;15.52;100.00;100466.22;6254614;28;20056;-91
2023/06/18 03:08:42;;;;;;;11.00;8.85;;;;;;;15.50;100.00;100468.16;6244183;28;20059;-91
2023/06/18 03:11:44;;;;;;;10.70;8.85;;;;;;;15.49;100.00;100464.72;6227565;28;20062;-91
2023/06/18 03:14:46;;;;;;;11.38;8.77;;;;;;;15.48;100.00;100475.34;6232783;28;20062;-91
2023/06/18 03:17:49;;;;;;;12.05;9.13;;;;;;;15.46;100.00;100475.47;6258603;28;20037;-90
2023/06/18 03:20:53;;;;;;;11.60;9.30;;;;;;;15.48;100.00;100470.13;6235731;28;20140;-91
2023/06/18 03:23:56;;;;;;;12.10;9.20;;;;;;;15.50;100.00;100468.16;6233273;28;20085;-91
2023/06/18 03:26:58;;;;;;;12.82;8.93;;;;;;;15.48;100.00;100468.31;6244415;28;20188;-90
2023/06/18 03:30:04;;;;;;;12.52;9.13;;;;;;;15.47;100.00;100458.03;6220987;28;20060;-91
2023/06/18 03:33:08;;;;;;;11.52;9.23;;;;;;;15.51;100.00;100465.41;6240636;28;20045;-91
2023/06/18 03:36:15;;;;;;;11.13;8.50;;;;;;;15.53;100.00;100460.03;6237616;28;20052;-91
2023/06/18 03:39:19;;;;;;;12.43;9.88;;;;;;;15.49;100.00;100462.13;6223602;28;20053;-91
2023/06/18 03:42:21;;;;;;;11.57;8.82;;;;;;;15.48;100.00;100467.50;6258373;28;20041;-91
2023/06/18 03:45:25;;;;;;;11.77;9.23;;;;;;;15.49;100.00;100461.31;6241830;28;20499;-91
2023/06/18 03:48:27;;;;;;;12.23;8.10;;;;;;;15.49;100.00;100464.72;6238616;28;20041;-90
2023/06/18 03:51:29;;;;;;;11.52;8.82;;;;;;;15.52;100.00;100458.38;6247132;28;20126;-91
2023/06/18 03:54:31;;;;;;;11.25;8.65;;;;;;;15.52;100.00;100455.78;6230171;28;20049;-91
2023/06/18 03:57:35;;;;;;;12.55;9.05;;;;;;;15.52;100.00;100463.59;6240422;28;20505;-91
2023/06/18 04:00:38;;;;;;;10.00;8.48;;;;;;;15.55;100.00;100467.69;6214235;28;20046;-91
2023/06/18 04:03:41;;;;;;;11.60;9.57;;;;;;;15.59;100.00;100466.41;6261437;28;20506;-91
2023/06/18 04:06:43;;;;;;;10.43;9.13;;;;;;;15.61;100.00;100457.47;6244892;28;20191;-91
2023/06/18 04:09:48;;;;;;;12.68;9.40;;;;;;;15.68;100.00;100461.09;6239444;28;20061;-91
2023/06/18 04:12:49;;;;;;;10.32;8.48;;;;;;;15.70;100.00;100463.56;6248916;28;20037;-91
2023/06/18 04:15:51;;;;;;;10.90;8.85;;;;;;;15.71;100.00;100466.03;6228187;28;20046;-91
2023/06/18 04:18:53;;;;;;;10.73;9.32;;;;;;;15.78;100.00;100473.25;6243391;28;20511;-91
2023/06/18 04:21:54;;;;;;;11.45;9.43;;;;;;;15.83;100.00;100473.59;6241586;28;20518;-91
2023/06/18 04:24:56;;;;;;;14.05;9.40;;;;;;;15.83;100.00;100478.81;6236978;28;20554;-91
2023/06/18 04:27:58;;;;;;;12.18;8.95;;;;;;;15.84;100.00;100476.03;6241300;28;20045;-91
2023/06/18 04:31:01;;;;;;;12.68;8.77;;;;;;;15.86;100.00;100486.31;6253455;28;20037;-91
2023/06/18 04:34:03;;;;;;;12.18;8.95;;;;;;;15.89;100.00;100486.00;6232718;28;20178;-91
2023/06/18 04:37:06;;;;;;;10.95;8.18;;;;;;;15.90;100.00;100485.03;6240401;28;20128;-92
2023/06/18 04:40:09;;;;;;;13.73;8.30;;;;;;;15.95;100.00;100482.78;6236237;28;20135;-91
2023/06/18 04:43:13;;;;;;;9.30;8.05;;;;;;;15.97;100.00;100486.03;6220730;28;20518;-92
2023/06/18 04:46:18;;;;;;;10.90;8.68;;;;;;;15.97;100.00;100480.81;6237005;28;20056;-91
2023/06/18 04:49:20;;;;;;;10.05;8.13;;;;;;;15.97;100.00;100483.41;6244525;28;20187;-91
2023/06/18 04:52:22;;;;;;;10.60;8.50;;;;;;;15.97;100.00;100486.03;6249254;28;20049;-91
2023/06/18 04:55:24;;;;;;;13.07;8.77;;;;;;;16.03;100.00;100489.81;6248901;28;20515;-91
2023/06/18 04:58:28;;;;;;;10.32;8.65;;;;;;;16.07;100.00;100491.97;6226191;28;20344;-91
2023/06/18 05:01:30;;;;;;;11.75;9.07;;;;;;;16.13;100.00;100493.94;6252802;28;20045;-91
2023/06/18 05:04:32;;;;;;;10.45;9.20;;;;;;;16.18;100.00;100493.47;6249940;28;20119;-91
2023/06/18 05:07:37;;;;;;;11.13;8.90;;;;;;;16.23;100.00;100498.22;6247172;28;20490;-91
2023/06/18 05:10:39;;;;;;;11.40;9.40;;;;;;;16.28;100.00;100496.75;6235983;28;20064;-91
2023/06/18 05:13:41;;;;;;;12.55;9.70;;;;;;;16.31;100.00;100493.81;6230640;28;20431;-91
2023/06/18 05:16:42;;;;;;;10.43;8.73;;;;;;;16.37;100.00;100497.56;6215813;28;20525;-92
2023/06/18 05:19:44;;;;;;;13.50;9.55;;;;;;;16.41;100.00;100495.47;6235870;28;20525;-91
2023/06/18 05:22:47;;;;;;;17.63;10.93;;;;;;;16.47;100.00;100494.81;6235157;28;20041;-91
2023/06/18 05:25:50;;;;;;;13.40;10.05;;;;;;;16.50;100.00;100497.94;6209720;28;20136;-91
2023/06/18 05:28:52;;;;;;;13.13;9.93;;;;;;;16.55;100.00;100493.06;6255546;28;20045;-92
2023/06/18 05:31:54;;;;;;;14.43;9.93;;;;;;;16.57;100.00;100504.19;6239759;28;20069;-92
2023/06/18 05:35:03;;;;;;;12.80;10.25;;;;;;;16.62;100.00;100503.69;6235766;28;20111;-92
2023/06/18 05:38:11;;;;;;;13.27;10.65;;;;;;;16.69;100.00;100499.44;6231894;28;20538;-92
2023/06/18 05:41:12;;;;;;;11.18;9.25;;;;;;;16.74;100.00;100501.56;6243232;28;20609;-92
2023/06/18 05:44:15;;;;;;;16.02;10.13;;;;;;;16.79;100.00;100504.53;6234450;28;20086;-92
2023/06/18 05:47:17;;;;;;;13.77;10.63;;;;;;;16.83;100.00;100510.28;6239734;28;20050;-92
2023/06/18 05:50:19;;;;;;;14.25;10.75;;;;;;;16.87;100.00;100514.19;6247626;28;20052;-92
2023/06/18 05:53:22;;;;;;;13.57;10.43;;;;;;;16.91;100.00;100516.31;6242831;28;20049;-92
2023/06/18 05:56:24;;;;;;;13.82;10.48;;;;;;;16.99;100.00;100515.50;6240653;28;20052;-92
2023/06/18 05:59:26;;;;;;;15.25;10.07;;;;;;;17.02;100.00;100515.19;6246375;28;20487;-92
2023/06/18 06:02:34;;;;;;;12.13;9.50;;;;;;;17.09;100.00;100520.56;6240352;28;20041;-92
2023/06/18 06:05:36;;;;;;;13.85;9.80;;;;;;;17.16;100.00;100519.75;6249783;28;20487;-92
2023/06/18 06:08:38;;;;;;;13.07;10.00;;;;;;;17.25;100.00;100522.38;6218218;28;20050;-92
2023/06/18 06:11:43;;;;;;;13.57;10.52;;;;;;;17.35;100.00;100523.03;6235476;28;20056;-93
2023/06/18 06:14:47;;;;;;;13.63;10.95;;;;;;;17.41;100.00;100517.94;6246760;28;20283;-93
2023/06/18 06:17:48;;;;;;;15.65;10.43;;;;;;;17.47;100.00;100515.66;6251384;28;20049;-92
2023/06/18 06:20:51;;;;;;;15.95;10.85;;;;;;;17.55;100.00;100524.28;6245173;28;20091;-93
2023/06/18 06:23:53;;;;;;;11.80;10.20;;;;;;;17.63;100.00;100520.84;6236179;28;20045;-93
2023/06/18 06:26:56;;;;;;;16.17;10.20;;;;;;;17.70;100.00;100521.81;6217163;28;20053;-92
2023/06/18 06:29:59;;;;;;;15.45;10.68;;;;;;;17.78;100.00;100521.78;6226191;28;20051;-92
2023/06/18 06:33:01;;;;;;;14.82;10.35;;;;;;;17.85;100.00;100520.16;6225530;28;20136;-93
2023/06/18 06:36:04;;;;;;;11.98;10.60;;;;;;;17.97;100.00;100519.78;6239939;28;20048;-92
2023/06/18 06:39:07;;;;;;;17.77;10.73;;;;;;;18.08;100.00;100525.47;6222493;28;20216;-93
2023/06/18 06:42:10;;;;;;;13.77;11.23;;;;;;;18.15;100.00;100515.13;6229909;28;20041;-93
2023/06/18 06:45:13;;;;;;;12.70;10.30;;;;;;;18.23;100.00;100519.50;6243345;28;20501;-93
2023/06/18 06:48:35;;;;;;;14.30;10.77;;;;;;;18.34;100.00;100532.25;6233043;28;20049;-92
2023/06/18 06:51:56;;;;;;;12.95;10.73;;;;;;;18.42;100.00;100534.00;6245684;28;20380;-93
2023/06/18 06:54:57;;;;;;;12.52;10.05;;;;;;;18.54;100.00;100539.69;6236238;28;20033;-93
2023/06/18 06:57:59;;;;;;;14.40;10.00;;;;;;;18.67;100.00;100535.47;6234922;28;20037;-93
2023/06/18 07:01:01;;;;;;;13.05;10.60;;;;;;;18.78;100.00;100539.56;6235136;28;20048;-92
2023/06/18 07:04:03;;;;;;;13.57;9.88;;;;;;;18.89;100.00;100556.69;6239576;28;20410;-92
2023/06/18 07:07:05;;;;;;;13.45;10.93;;;;;;;18.99;100.00;100549.38;6235871;28;20065;-92
2023/06/18 07:10:08;;;;;;;11.25;10.07;;;;;;;19.08;100.00;100552.75;6249921;28;20441;-92
2023/06/18 07:13:09;;;;;;;13.27;11.13;;;;;;;19.16;100.00;100552.72;6234831;28;20037;-93
2023/06/18 07:16:11;;;;;;;12.75;10.50;;;;;;;19.29;100.00;100550.28;6248449;28;20052;-92
2023/06/18 07:19:14;;;;;;;11.05;9.88;;;;;;;19.38;100.00;100553.66;6235745;28;20052;-93
2023/06/18 07:22:15;;;;;;;13.90;11.00;;;;;;;19.51;100.00;100545.19;6236701;28;20038;-92
2023/06/18 07:25:17;;;;;;;14.30;11.38;;;;;;;19.57;100.00;100558.38;6235328;28;20156;-93
2023/06/18 07:28:19;;;;;;;14.07;10.30;;;;;;;19.70;100.00;100556.97;6229875;28;20629;-93
2023/06/18 07:31:21;;;;;;;12.80;10.23;;;;;;;19.80;100.00;100552.31;6242061;28;20053;-93
2023/06/18 07:34:22;;;;;;;13.30;10.50;;;;;;;19.88;100.00;100546.16;6242083;28;20067;-93
2023/06/18 07:37:24;;;;;;;12.93;10.07;;;;;;;19.98;100.00;100552.75;6232946;28;20541;-94
2023/06/18 07:40:28;;;;;;;13.20;10.48;;;;;;;20.06;100.00;100549.19;6246027;28;20045;-94
2023/06/18 07:43:29;;;;;;;14.38;10.98;;;;;;;20.19;100.00;100545.91;6238991;28;20151;-93
2023/06/18 07:46:33;;;;;;;15.10;10.40;;;;;;;20.27;100.00;100543.19;6243348;28;20068;-94
2023/06/18 07:49:35;;;;;;;13.85;9.93;;;;;;;20.37;100.00;100541.09;6233701;28;20046;-94
2023/06/18 07:52:37;;;;;;;13.10;9.85;;;;;;;20.50;100.00;100540.44;6247046;28;20029;-93
2023/06/18 07:55:39;;;;;;;10.18;9.10;;;;;;;20.64;100.00;100536.13;6234084;28;20037;-93
2023/06/18 07:58:41;;;;;;;11.57;9.60;;;;;;;20.79;100.00;100534.25;6239910;28;20041;-93
2023/06/18 08:01:43;;;;;;;13.27;9.43;;;;;;;20.89;100.00;100527.88;6235637;28;21059;-93
2023/06/18 08:04:45;;;;;;;10.80;9.05;;;;;;;20.99;100.00;100526.56;6238452;28;20356;-93
2023/06/18 08:07:47;;;;;;;11.73;9.75;;;;;;;21.05;100.00;100514.47;6242413;28;20407;-93
2023/06/18 08:10:50;;;;;;;13.38;10.43;;;;;;;21.16;100.00;100521.81;6248279;28;20188;-93
2023/06/18 08:13:52;;;;;;;10.57;8.63;;;;;;;21.30;100.00;100517.47;6229300;28;20037;-92
2023/06/18 08:16:54;;;;;;;10.43;8.00;;;;;;;21.39;100.00;100523.44;6253085;28;20411;-93
2023/06/18 08:20:04;;;;;;;10.18;8.05;;;;;;;21.48;100.00;100522.28;6245826;28;20484;-93
2023/06/18 08:23:06;;;;;;;10.15;7.75;;;;;;;21.54;100.00;100520.69;6244107;28;20111;-93
2023/06/18 08:26:08;;;;;;;11.25;8.23;;;;;;;21.61;100.00;100514.47;6250724;28;20539;-93
2023/06/18 08:29:10;;;;;;;9.57;8.57;;;;;;;21.67;100.00;100518.97;6253113;28;20045;-93
2023/06/18 08:32:13;;;;;;;9.50;8.18;;;;;;;21.75;100.00;100514.56;6243262;28;20072;-92
2023/06/18 08:35:15;;;;;;;10.95;8.85;;;;;;;21.85;100.00;100518.44;6254035;28;20041;-92
2023/06/18 08:38:17;;;;;;;10.35;8.40;;;;;;;21.94;100.00;100516.47;6253017;28;20056;-93
2023/06/18 08:41:18;;;;;;;9.93;7.90;;;;;;;22.06;100.00;100522.81;6259344;28;20513;-92
2023/06/18 08:44:23;;;;;;;10.23;8.63;;;;;;;22.17;100.00;100518.78;6245332;28;20402;-92
2023/06/18 08:47:27;;;;;;;10.38;8.65;;;;;;;22.19;100.00;100511.50;6245684;28;20061;-93
2023/06/18 08:50:29;;;;;;;12.40;9.05;;;;;;;22.28;100.00;100510.31;6250939;28;20076;-93
2023/06/18 08:53:41;;;;;;;9.40;8.40;;;;;;;22.33;100.00;100504.44;6252341;28;20534;-92
2023/06/18 08:56:45;;;;;;;8.90;7.45;;;;;;;22.45;100.00;100512.59;6243973;28;20060;-92
2023/06/18 08:59:48;;;;;;;11.40;8.63;;;;;;;22.57;100.00;100503.91;6247514;28;20045;-91
2023/06/18 09:02:52;;;;;;;9.73;8.00;;;;;;;22.66;100.00;100506.34;6249366;28;20403;-91
2023/06/18 09:05:54;;;;;;;10.27;8.18;;;;;;;22.74;100.00;100503.53;6249388;28;20061;-92
2023/06/18 09:08:58;;;;;;;10.43;8.43;;;;;;;22.75;100.00;100505.94;6249003;28;20045;-92
2023/06/18 09:12:00;;;;;;;9.70;8.73;;;;;;;22.81;100.00;100501.72;6239896;28;20056;-91
2023/06/18 09:15:02;;;;;;;9.48;8.48;;;;;;;22.90;100.00;100497.03;6238318;28;20220;-91
2023/06/18 09:18:05;;;;;;;8.45;7.60;;;;;;;23.09;100.00;100503.38;6235403;28;20443;-91
2023/06/18 09:21:07;;;;;;;9.43;7.72;;;;;;;23.18;100.00;100499.50;6237830;28;20060;-91
2023/06/18 09:24:15;;;;;;;10.18;7.97;;;;;;;23.31;100.00;100501.31;6220525;28;20052;-89
2023/06/18 09:27:16;;;;;;;8.85;7.88;;;;;;;23.40;100.00;100508.81;6238538;28;20437;-90
2023/06/18 09:30:23;;;;;;;8.15;7.28;;;;;;;23.54;100.00;100506.94;6243406;28;20076;-89
2023/06/18 09:33:30;;;;;;;9.70;7.15;;;;;;;23.74;100.00;100504.28;6221111;28;20151;-89
2023/06/18 09:36:35;;;;;;;8.23;7.25;;;;;;;23.86;100.00;100502.63;6241393;28;20050;-89
2023/06/18 09:39:38;;;;;;;9.18;7.53;;;;;;;23.95;100.00;100502.38;6253092;28;20447;-89
2023/06/18 09:42:40;;;;;;;8.82;7.72;;;;;;;23.99;100.00;100501.75;6241522;28;20052;-89
2023/06/18 09:45:42;;;;;;;8.13;7.05;;;;;;;24.18;100.00;100500.03;6244302;28;20087;-89
2023/06/18 09:48:46;;;;;;;9.57;7.65;;;;;;;24.31;100.00;100501.78;6244053;28;20073;-89
2023/06/18 09:51:54;;;;;;;9.85;7.78;;;;;;;24.39;100.00;100498.88;6239989;28;20049;-90
2023/06/18 09:54:56;;;;;;;10.30;7.82;;;;;;;24.44;100.00;100503.53;6224971;28;20502;-89
2023/06/18 09:57:59;;;;;;;8.00;7.20;;;;;;;24.52;100.00;100492.75;6238293;28;20160;-90
2023/06/18 10:01:03;;;;;;;9.88;7.00;;;;;;;24.54;100.00;100493.31;6244034;28;20041;-90
2023/06/18 10:04:05;;;;;;;10.05;7.78;;;;;;;24.57;100.00;100498.22;6243899;28;20585;-90
2023/06/18 10:07:15;;;;;;;9.57;7.15;;;;;;;24.63;100.00;100492.06;6235077;28;20045;-89
2023/06/18 10:10:18;;;;;;;14.93;7.45;;;;;;;24.72;100.00;100495.25;6237399;28;20037;-89
2023/06/18 10:13:22;;;;;;;8.63;7.35;;;;;;;24.67;100.00;100493.25;6248210;28;20049;-90
2023/06/18 10:16:29;;;;;;;9.63;7.45;;;;;;;24.69;100.00;100495.66;6239932;28;20045;-89
2023/06/18 10:19:42;;;;;;;7.75;6.88;;;;;;;24.84;100.00;100490.84;6244996;28;20170;-89
2023/06/18 10:22:47;;;;;;;9.18;6.53;;;;;;;25.03;100.00;100486.44;6241742;28;20442;-89
2023/06/18 10:25:50;;;;;;;8.40;6.57;;;;;;;25.20;100.00;100496.50;6234684;28;20506;-90
2023/06/18 10:28:52;;;;;;;6.97;6.28;;;;;;;25.33;100.00;100488.44;6236544;28;20037;-89
2023/06/18 10:31:55;;;;;;;7.68;6.88;;;;;;;25.47;82.80;100497.06;6243204;28;20052;-88
2023/06/18 10:35:01;;;;;;;6.18;5.53;;;;;;;25.43;88.48;100496.69;6244911;28;20041;-89
2023/06/18 10:38:06;;;;;;;7.30;6.47;;;;;;;25.46;88.73;100490.94;6236376;28;20045;-89
2023/06/18 10:41:18;;;;;;;6.05;5.45;;;;;;;25.52;79.34;100490.06;6240449;28;20788;-89
2023/06/18 10:44:34;;;;;;;8.00;6.05;;;;;;;25.51;69.81;100485.78;6244648;28;20037;-89
2023/06/18 10:47:37;;;;;;;7.45;6.25;;;;;;;25.51;75.20;100477.81;6245873;28;20052;-89
2023/06/18 10:50:39;;;;;;;7.93;6.15;;;;;;;25.69;88.42;100462.94;6234661;28;20042;-88
2023/06/18 10:54:21;;;;;;;7.40;6.63;;;;;;;25.81;83.53;100469.13;6248006;28;20052;-89
2023/06/18 10:57:29;;;;;;;8.57;6.97;;;;;;;25.95;89.82;100451.22;6228572;28;20041;-89
2023/06/18 11:00:41;;;;;;;7.35;6.65;;;;;;;26.12;90.57;100462.03;6236478;28;20037;-89
2023/06/18 11:03:43;;;;;;;6.95;6.25;;;;;;;26.34;88.42;100463.13;6237608;28;20056;-90
2023/06/18 11:06:45;;;;;;;6.63;6.03;;;;;;;26.45;83.35;100450.13;6250360;28;20045;-90
2023/06/18 11:09:51;;;;;;;7.15;6.05;;;;;;;26.61;80.14;100447.63;6244908;28;20053;-90
2023/06/18 11:12:54;;;;;;;7.57;6.10;;;;;;;26.85;84.25;100440.47;6244873;28;20519;-90
2023/06/18 11:16:14;;;;;;;7.10;6.18;;;;;;;27.00;77.34;100442.66;6238343;28;20510;-89
2023/06/18 11:19:17;;;;;;;6.82;6.03;;;;;;;27.14;71.98;100447.75;6240570;28;20913;-89
2023/06/18 11:22:19;;;;;;;9.85;6.18;;;;;;;27.30;69.33;100451.56;6240809;28;20064;-89
2023/06/18 11:25:22;;;;;;;6.60;5.65;;;;;;;27.41;71.53;100450.75;6226784;28;20041;-90
2023/06/18 11:28:25;;;;;;;6.95;6.07;;;;;;;27.46;73.04;100445.53;6243163;28;20454;-90
2023/06/18 11:31:32;;;;;;;7.97;5.72;;;;;;;27.55;74.75;100452.09;6238492;28;20139;-90
2023/06/18 11:34:40;;;;;;;6.60;5.88;;;;;;;27.61;66.68;100437.88;6240193;28;20406;-90
2023/06/18 11:37:44;;;;;;;9.05;5.60;;;;;;;27.80;60.10;100443.00;6235258;28;20067;-89
2023/06/18 11:40:50;;;;;;;6.43;5.82;;;;;;;27.94;57.10;100433.72;6231872;28;20037;-89
2023/06/18 11:43:53;;;;;;;6.40;5.78;;;;;;;28.04;59.60;100427.78;6237302;28;20769;-90
2023/06/18 11:46:55;;;;;;;6.30;5.70;;;;;;;28.20;55.15;100428.84;6223088;28;20487;-90
2023/06/18 11:49:58;;;;;;;6.78;5.80;;;;;;;28.28;53.77;100431.91;6232036;28;20041;-90
2023/06/18 11:53:05;;;;;;;6.40;5.80;;;;;;;28.32;56.45;100413.59;6236678;28;20038;-90
2023/06/18 11:56:06;;;;;;;5.35;4.85;;;;;;;28.54;59.77;100417.19;6233973;28;20480;-90
2023/06/18 11:59:08;;;;;;;5.68;5.07;;;;;;;28.85;55.36;100412.31;6234708;28;20033;-89
2023/06/18 12:02:15;;;;;;;6.03;5.40;;;;;;;29.14;52.90;100417.50;6224953;28;20061;-90
2023/06/18 12:05:18;;;;;;;6.25;5.68;;;;;;;29.31;52.89;100423.59;6245352;28;20056;-88
2023/06/18 12:08:20;;;;;;;7.20;5.60;;;;;;;29.42;58.95;100419.22;6239775;28;20032;-90
2023/06/18 12:11:51;;;;;;;7.53;6.25;;;;;;;29.52;56.28;100424.66;6237720;28;20103;-91
2023/06/18 12:15:23;;;;;;;6.43;5.72;;;;;;;29.56;54.80;100420.41;6232277;28;20107;-90
2023/06/18 12:18:33;;;;;;;7.75;5.95;;;;;;;29.54;51.16;100421.72;6236918;28;20046;-90
2023/06/18 12:21:35;;;;;;;8.00;6.20;;;;;;;29.43;56.14;100420.81;6234677;28;20132;-90
2023/06/18 12:24:38;;;;;;;6.53;5.88;;;;;;;29.38;58.74;100420.75;6236225;28;20044;-90
2023/06/18 12:27:41;;;;;;;7.15;6.38;;;;;;;29.52;52.79;100423.84;6228703;28;20403;-89
2023/06/18 12:30:43;;;;;;;7.28;6.07;;;;;;;29.60;53.50;100423.41;6219231;28;20422;-89
2023/06/18 12:33:45;;;;;;;6.40;5.80;;;;;;;29.70;51.83;100423.53;6236907;28;20181;-89
2023/06/18 12:36:47;;;;;;;8.15;5.75;;;;;;;29.76;48.72;100419.06;6237713;28;20041;-89
2023/06/18 12:40:14;;;;;;;8.95;6.75;;;;;;;29.82;48.73;100416.19;6248803;28;20384;-89
2023/06/18 12:43:18;;;;;;;6.82;6.20;;;;;;;30.01;51.06;100419.31;6236745;28;20201;-89
2023/06/18 12:46:27;;;;;;;6.55;5.95;;;;;;;30.22;49.09;100416.81;6235222;28;20045;-89
2023/06/18 12:49:37;;;;;;;6.82;6.13;;;;;;;30.46;51.02;100411.97;6240787;28;20120;-89
2023/06/18 12:52:42;;;;;;;8.25;6.35;;;;;;;30.68;51.64;100410.00;6238049;28;20040;-89
2023/06/18 12:55:47;;;;;;;7.90;6.10;;;;;;;30.83;51.74;100408.47;6221545;28;20449;-89
2023/06/18 12:58:53;;;;;;;7.32;6.63;;;;;;;30.92;49.09;100400.78;6236672;28;20052;-89
2023/06/18 13:01:55;;;;;;;6.93;6.22;;;;;;;30.99;48.40;100401.38;6234401;28;20136;-89
2023/06/18 13:04:57;;;;;;;7.00;6.30;;;;;;;31.10;54.04;100395.78;6235803;28;20304;-89
2023/06/18 13:08:00;;;;;;;7.78;6.80;;;;;;;31.23;46.75;100388.34;6233879;28;20094;-89
2023/06/18 13:11:03;;;;;;;7.00;6.05;;;;;;;31.18;49.23;100382.97;6250502;28;20099;-89
2023/06/18 13:14:05;;;;;;;7.15;6.32;;;;;;;31.06;45.34;100384.00;6240064;28;20037;-89
2023/06/18 13:17:19;;;;;;;6.63;6.03;;;;;;;31.11;48.74;100383.25;6245965;28;20422;-89
2023/06/18 13:20:21;;;;;;;7.30;6.57;;;;;;;31.32;48.62;100378.75;6234931;28;20538;-89
2023/06/18 13:23:23;;;;;;;7.15;6.43;;;;;;;31.56;48.29;100375.66;6235883;28;20041;-90
2023/06/18 13:26:29;;;;;;;7.38;6.68;;;;;;;31.75;45.35;100385.59;6237849;28;20037;-89
2023/06/18 13:29:31;;;;;;;7.90;7.20;;;;;;;31.71;49.20;100381.03;6235378;28;20045;-89
2023/06/18 13:32:32;;;;;;;6.72;6.07;;;;;;;31.63;48.91;100384.22;6260157;28;20049;-90
2023/06/18 13:35:34;;;;;;;8.23;7.28;;;;;;;31.69;50.92;100378.59;6239255;28;20116;-89
2023/06/18 13:38:36;;;;;;;7.55;6.78;;;;;;;31.73;44.56;100376.22;6249472;28;20052;-89
2023/06/18 13:41:38;;;;;;;7.78;7.07;;;;;;;31.45;45.69;100380.16;6238830;28;20037;-89
2023/06/18 13:44:41;;;;;;;9.75;7.00;;;;;;;31.38;45.21;100380.38;6260474;28;20304;-89
2023/06/18 13:47:43;;;;;;;7.95;6.80;;;;;;;31.42;45.26;100375.34;6251632;28;20107;-90
2023/06/18 13:50:46;;;;;;;7.30;6.60;;;;;;;31.66;42.65;100381.00;6236736;28;20041;-90
2023/06/18 13:53:48;;;;;;;7.80;6.32;;;;;;;31.92;43.62;100379.16;6235648;28;20041;-89
2023/06/18 13:56:50;;;;;;;7.10;6.05;;;;;;;32.41;46.00;100375.97;6236645;28;20041;-90
2023/06/18 13:59:52;;;;;;;8.68;6.72;;;;;;;32.94;44.46;100373.69;6236368;28;20113;-89